Terminal Aerodrome Forecast
Issued by NWS Grand Forks, ND

Home | Current Version | Previous Version | Text Only | Print | Product List | Glossary Off
Versions: 1 2 3 4 5 6 7 8 9 10 11 12 13 14 15 16

000
FTUS43 KFGF 201100
TAFGFK
TAF
KGFK 201121Z 2012/2112 20006KT 4SM BR OVC006
      TEMPO 2013/2016 1SM BR OVC004
     FM202000 18008KT P6SM OVC012=

USA.gov is the U.S. government's official web portal to all federal, state and local government web resources and services.